Aviation Digital Data Service (ADDS)

Output produced by METARs form (1247 UTC 26 March 2019)
found at http://www.aviationweather.gov/metar/data/
 
Forecast for: UTAA (ASHGABAT , TM)
Text: TAF UTAA 261055Z 2612/2712 04014KT 5000 -RA OVC007 SCT020CB 530009
Forecast period: 1200 UTC 26 March 2019 to 1200 UTC 27 March 2019
Forecast type: FROM: standard forecast or significant change
Winds: from the NE (40 degrees) at 16 MPH (14 knots; 7.2 m/s)
Visibility: 3 miles (5 km)
Ceiling: 700 feet AGL
Clouds: overcast cloud deck at 700 feet AGL
scattered clouds at 2000 feet AGL
Weather: -RA  (light rain)
Text: TEMPO 2612/2616 34012G22KT 3000 -SHRA BKN005
Forecast period: 1200 to 1600 UTC 26 March 2019
Forecast type: TEMPORARY: The following changes expected for less than half the time period
Winds: from the NNW (340 degrees) at 14 MPH (12 knots; 6.2 m/s)
gusting to 25 MPH (22 knots; 11.3 m/s)
Visibility: 1.86 miles (2.99 km)
Ceiling: 500 feet AGL
Clouds: broken clouds at 500 feet AGL
Weather: -SHRA  (light rain showers)
Text: TEMPO 2617/2704 03012KT 1500 -RA BR BKN003
Forecast period: 1700 UTC 26 March 2019 to 0400 UTC 27 March 2019
Forecast type: TEMPORARY: The following changes expected for less than half the time period
Winds: from the NNE (30 degrees) at 14 MPH (12 knots; 6.2 m/s)
Visibility: 0.93 miles (1.50 km)
Ceiling: 300 feet AGL
Clouds: broken clouds at 300 feet AGL
Weather: -RA BR  (light rain, mist)